Terminal Aerodrome Forecast
Issued by NWS Jackson, KY

Home | Current Version | Previous Version | Text Only | Print | Product List | Glossary On
Versions: 1 2 3 4 5 6 7 8 9 10 11 12 13 14 15 16 17 18 19
174
FTUS43 KJKL 251733
TAFLOZ
TAF
KLOZ 251733Z 2518/2618 01006KT P6SM SCT035
     FM260200 00000KT P6SM SKC
     FM260900 00000KT 1SM BR SCT003
     FM261300 25004KT P6SM SKC=

USA.gov is the U.S. government's official web portal to all federal, state and local government web resources and services.